sensor_id;sensor_type;location;lat;lon;timestamp;P1;durP1;ratioP1;P2;durP2;ratioP2
48945;SDS011;34999;50.940;3.998;2023-05-10T00:02:25;19.63;;;10.43;;
48945;SDS011;34999;50.940;3.998;2023-05-10T00:04:53;22.70;;;10.83;;
48945;SDS011;34999;50.940;3.998;2023-05-10T00:07:21;20.37;;;10.57;;
48945;SDS011;34999;50.940;3.998;2023-05-10T00:09:49;20.00;;;10.30;;
48945;SDS011;34999;50.940;3.998;2023-05-10T00:12:18;19.23;;;10.70;;
48945;SDS011;34999;50.940;3.998;2023-05-10T00:45:33;26.90;;;13.13;;
48945;SDS011;34999;50.940;3.998;2023-05-10T00:48:03;24.70;;;12.57;;
48945;SDS011;34999;50.940;3.998;2023-05-10T00:50:32;23.90;;;13.27;;
48945;SDS011;34999;50.940;3.998;2023-05-10T00:53:01;26.33;;;13.87;;
48945;SDS011;34999;50.940;3.998;2023-05-10T00:55:30;28.97;;;13.77;;
48945;SDS011;34999;50.940;3.998;2023-05-10T00:57:58;29.27;;;14.00;;
48945;SDS011;34999;50.940;3.998;2023-05-10T01:00:26;30.73;;;15.07;;
48945;SDS011;34999;50.940;3.998;2023-05-10T01:06:41;27.47;;;15.37;;
48945;SDS011;34999;50.940;3.998;2023-05-10T01:09:09;29.90;;;14.63;;
48945;SDS011;34999;50.940;3.998;2023-05-10T01:11:38;29.43;;;15.57;;
48945;SDS011;34999;50.940;3.998;2023-05-10T01:14:07;29.57;;;15.20;;
48945;SDS011;34999;50.940;3.998;2023-05-10T01:16:37;34.30;;;16.07;;
48945;SDS011;34999;50.940;3.998;2023-05-10T01:19:09;26.30;;;14.83;;
48945;SDS011;34999;50.940;3.998;2023-05-10T01:21:44;29.53;;;17.03;;
48945;SDS011;34999;50.940;3.998;2023-05-10T01:33:48;30.47;;;16.53;;
48945;SDS011;34999;50.940;3.998;2023-05-10T01:36:23;32.53;;;17.10;;
48945;SDS011;34999;50.940;3.998;2023-05-10T01:38:58;35.03;;;17.37;;
48945;SDS011;34999;50.940;3.998;2023-05-10T01:41:33;35.63;;;17.43;;
48945;SDS011;34999;50.940;3.998;2023-05-10T01:44:10;31.70;;;17.30;;
48945;SDS011;34999;50.940;3.998;2023-05-10T01:46:44;38.30;;;18.20;;
48945;SDS011;34999;50.940;3.998;2023-05-10T01:49:22;38.73;;;17.83;;
48945;SDS011;34999;50.940;3.998;2023-05-10T01:51:53;35.07;;;18.07;;
48945;SDS011;34999;50.940;3.998;2023-05-10T01:54:24;37.20;;;18.53;;
48945;SDS011;34999;50.940;3.998;2023-05-10T01:56:55;34.17;;;17.93;;
48945;SDS011;34999;50.940;3.998;2023-05-10T01:59:28;37.33;;;18.83;;
48945;SDS011;34999;50.940;3.998;2023-05-10T02:01:59;33.90;;;18.13;;
48945;SDS011;34999;50.940;3.998;2023-05-10T02:04:31;35.50;;;19.60;;
48945;SDS011;34999;50.940;3.998;2023-05-10T02:07:02;36.33;;;18.00;;
48945;SDS011;34999;50.940;3.998;2023-05-10T02:15:09;34.07;;;17.77;;
48945;SDS011;34999;50.940;3.998;2023-05-10T02:17:40;36.10;;;18.13;;
48945;SDS011;34999;50.940;3.998;2023-05-10T02:20:12;33.33;;;17.13;;
48945;SDS011;34999;50.940;3.998;2023-05-10T02:22:41;35.07;;;17.30;;
48945;SDS011;34999;50.940;3.998;2023-05-10T02:25:12;36.50;;;17.37;;
48945;SDS011;34999;50.940;3.998;2023-05-10T02:27:43;35.57;;;16.47;;
48945;SDS011;34999;50.940;3.998;2023-05-10T02:30:12;35.43;;;17.80;;
48945;SDS011;34999;50.940;3.998;2023-05-10T02:32:43;36.83;;;17.57;;
48945;SDS011;34999;50.940;3.998;2023-05-10T02:35:15;36.73;;;19.07;;
48945;SDS011;34999;50.940;3.998;2023-05-10T02:37:44;33.07;;;18.00;;
48945;SDS011;34999;50.940;3.998;2023-05-10T02:40:15;31.13;;;17.40;;
48945;SDS011;34999;50.940;3.998;2023-05-10T02:42:45;33.07;;;17.70;;
48945;SDS011;34999;50.940;3.998;2023-05-10T02:45:17;31.07;;;18.37;;
48945;SDS011;34999;50.940;3.998;2023-05-10T02:47:47;34.47;;;18.20;;
48945;SDS011;34999;50.940;3.998;2023-05-10T02:50:17;36.20;;;18.53;;
48945;SDS011;34999;50.940;3.998;2023-05-10T02:52:47;32.63;;;17.87;;
48945;SDS011;34999;50.940;3.998;2023-05-10T02:55:19;36.63;;;17.63;;
48945;SDS011;34999;50.940;3.998;2023-05-10T02:57:56;35.40;;;17.63;;
48945;SDS011;34999;50.940;3.998;2023-05-10T03:00:26;38.00;;;17.53;;
48945;SDS011;34999;50.940;3.998;2023-05-10T03:02:54;33.57;;;17.73;;
48945;SDS011;34999;50.940;3.998;2023-05-10T03:05:24;33.23;;;17.63;;
48945;SDS011;34999;50.940;3.998;2023-05-10T03:07:53;32.33;;;17.17;;
48945;SDS011;34999;50.940;3.998;2023-05-10T03:10:22;33.53;;;18.03;;
48945;SDS011;34999;50.940;3.998;2023-05-10T03:13:01;33.17;;;16.70;;
48945;SDS011;34999;50.940;3.998;2023-05-10T03:15:42;32.00;;;17.00;;
48945;SDS011;34999;50.940;3.998;2023-05-10T03:18:21;31.37;;;17.13;;
48945;SDS011;34999;50.940;3.998;2023-05-10T03:20:54;34.63;;;17.70;;
48945;SDS011;34999;50.940;3.998;2023-05-10T03:23:26;34.43;;;16.30;;
48945;SDS011;34999;50.940;3.998;2023-05-10T03:25:57;35.77;;;17.43;;
48945;SDS011;34999;50.940;3.998;2023-05-10T03:28:26;34.87;;;18.80;;
48945;SDS011;34999;50.940;3.998;2023-05-10T03:30:55;36.10;;;17.60;;
48945;SDS011;34999;50.940;3.998;2023-05-10T03:33:24;35.53;;;18.70;;
48945;SDS011;34999;50.940;3.998;2023-05-10T03:35:54;33.87;;;18.43;;
48945;SDS011;34999;50.940;3.998;2023-05-10T03:38:22;37.40;;;18.87;;
48945;SDS011;34999;50.940;3.998;2023-05-10T03:40:50;35.87;;;18.33;;
48945;SDS011;34999;50.940;3.998;2023-05-10T03:43:18;43.17;;;19.97;;
48945;SDS011;34999;50.940;3.998;2023-05-10T03:45:46;43.33;;;20.97;;
48945;SDS011;34999;50.940;3.998;2023-05-10T03:48:14;37.00;;;19.73;;
48945;SDS011;34999;50.940;3.998;2023-05-10T03:50:42;39.37;;;19.57;;
48945;SDS011;34999;50.940;3.998;2023-05-10T03:53:12;38.87;;;20.27;;
48945;SDS011;34999;50.940;3.998;2023-05-10T03:55:40;39.13;;;19.37;;
48945;SDS011;34999;50.940;3.998;2023-05-10T03:58:10;44.70;;;21.53;;
48945;SDS011;34999;50.940;3.998;2023-05-10T04:00:38;36.90;;;20.70;;
48945;SDS011;34999;50.940;3.998;2023-05-10T04:03:11;42.70;;;22.17;;
48945;SDS011;34999;50.940;3.998;2023-05-10T04:05:40;37.80;;;20.57;;
48945;SDS011;34999;50.940;3.998;2023-05-10T04:08:08;40.73;;;22.57;;
48945;SDS011;34999;50.940;3.998;2023-05-10T04:10:38;40.63;;;21.57;;
48945;SDS011;34999;50.940;3.998;2023-05-10T04:13:06;45.90;;;23.10;;
48945;SDS011;34999;50.940;3.998;2023-05-10T04:15:34;41.93;;;22.63;;
48945;SDS011;34999;50.940;3.998;2023-05-10T04:18:03;44.23;;;21.90;;
48945;SDS011;34999;50.940;3.998;2023-05-10T04:20:34;41.93;;;22.00;;
48945;SDS011;34999;50.940;3.998;2023-05-10T04:23:02;44.40;;;22.70;;
48945;SDS011;34999;50.940;3.998;2023-05-10T04:25:33;40.30;;;20.47;;
48945;SDS011;34999;50.940;3.998;2023-05-10T04:28:03;44.70;;;21.53;;
48945;SDS011;34999;50.940;3.998;2023-05-10T04:30:31;40.37;;;20.77;;
48945;SDS011;34999;50.940;3.998;2023-05-10T04:32:59;42.23;;;23.13;;
48945;SDS011;34999;50.940;3.998;2023-05-10T04:35:28;43.03;;;21.47;;
48945;SDS011;34999;50.940;3.998;2023-05-10T04:37:56;42.43;;;24.60;;
48945;SDS011;34999;50.940;3.998;2023-05-10T04:40:24;45.60;;;23.27;;
48945;SDS011;34999;50.940;3.998;2023-05-10T04:42:53;39.00;;;21.07;;
48945;SDS011;34999;50.940;3.998;2023-05-10T04:45:23;45.63;;;22.07;;
48945;SDS011;34999;50.940;3.998;2023-05-10T04:47:51;43.83;;;21.97;;
48945;SDS011;34999;50.940;3.998;2023-05-10T04:50:19;45.27;;;21.63;;
48945;SDS011;34999;50.940;3.998;2023-05-10T04:52:49;39.50;;;21.63;;
48945;SDS011;34999;50.940;3.998;2023-05-10T04:55:18;46.83;;;22.57;;
48945;SDS011;34999;50.940;3.998;2023-05-10T04:57:47;44.23;;;21.87;;
48945;SDS011;34999;50.940;3.998;2023-05-10T05:00:15;41.97;;;22.00;;
48945;SDS011;34999;50.940;3.998;2023-05-10T05:02:45;42.27;;;21.97;;
48945;SDS011;34999;50.940;3.998;2023-05-10T05:05:13;45.37;;;23.27;;
48945;SDS011;34999;50.940;3.998;2023-05-10T05:07:42;46.63;;;23.77;;
48945;SDS011;34999;50.940;3.998;2023-05-10T05:10:10;47.40;;;22.53;;
48945;SDS011;34999;50.940;3.998;2023-05-10T05:12:38;47.73;;;23.90;;
48945;SDS011;34999;50.940;3.998;2023-05-10T05:15:07;49.70;;;23.20;;
48945;SDS011;34999;50.940;3.998;2023-05-10T05:17:37;53.63;;;23.03;;
48945;SDS011;34999;50.940;3.998;2023-05-10T05:20:07;47.87;;;23.37;;
48945;SDS011;34999;50.940;3.998;2023-05-10T05:22:36;54.80;;;24.27;;
48945;SDS011;34999;50.940;3.998;2023-05-10T05:25:05;50.37;;;24.77;;
48945;SDS011;34999;50.940;3.998;2023-05-10T05:27:34;51.93;;;24.07;;
48945;SDS011;34999;50.940;3.998;2023-05-10T05:30:02;57.90;;;25.30;;
48945;SDS011;34999;50.940;3.998;2023-05-10T05:32:31;53.60;;;24.67;;
48945;SDS011;34999;50.940;3.998;2023-05-10T05:34:59;50.93;;;23.90;;
48945;SDS011;34999;50.940;3.998;2023-05-10T05:37:28;50.30;;;23.57;;
48945;SDS011;34999;50.940;3.998;2023-05-10T05:39:57;51.70;;;24.50;;
48945;SDS011;34999;50.940;3.998;2023-05-10T05:42:28;50.37;;;23.90;;
48945;SDS011;34999;50.940;3.998;2023-05-10T05:44:58;54.37;;;24.73;;
48945;SDS011;34999;50.940;3.998;2023-05-10T05:47:26;50.07;;;24.43;;
48945;SDS011;34999;50.940;3.998;2023-05-10T05:49:54;52.53;;;24.23;;
48945;SDS011;34999;50.940;3.998;2023-05-10T05:52:22;54.70;;;23.40;;
48945;SDS011;34999;50.940;3.998;2023-05-10T05:54:52;56.90;;;23.40;;
48945;SDS011;34999;50.940;3.998;2023-05-10T05:57:20;47.97;;;23.73;;
48945;SDS011;34999;50.940;3.998;2023-05-10T05:59:49;55.60;;;24.57;;
48945;SDS011;34999;50.940;3.998;2023-05-10T06:02:17;57.03;;;25.60;;
48945;SDS011;34999;50.940;3.998;2023-05-10T06:04:45;57.73;;;25.63;;
48945;SDS011;34999;50.940;3.998;2023-05-10T06:07:13;54.47;;;24.20;;
48945;SDS011;34999;50.940;3.998;2023-05-10T06:09:42;56.20;;;24.67;;
48945;SDS011;34999;50.940;3.998;2023-05-10T06:12:11;49.70;;;24.13;;
48945;SDS011;34999;50.940;3.998;2023-05-10T06:14:40;54.13;;;25.07;;
48945;SDS011;34999;50.940;3.998;2023-05-10T06:17:10;49.27;;;24.50;;
48945;SDS011;34999;50.940;3.998;2023-05-10T06:19:38;60.27;;;24.87;;
48945;SDS011;34999;50.940;3.998;2023-05-10T06:22:06;59.00;;;25.50;;
48945;SDS011;34999;50.940;3.998;2023-05-10T06:24:34;59.50;;;24.67;;
48945;SDS011;34999;50.940;3.998;2023-05-10T06:27:03;60.43;;;25.53;;
48945;SDS011;34999;50.940;3.998;2023-05-10T06:29:32;55.57;;;24.70;;
48945;SDS011;34999;50.940;3.998;2023-05-10T06:32:01;55.83;;;25.33;;
48945;SDS011;34999;50.940;3.998;2023-05-10T06:34:29;67.90;;;24.73;;
48945;SDS011;34999;50.940;3.998;2023-05-10T06:36:58;55.83;;;24.13;;
48945;SDS011;34999;50.940;3.998;2023-05-10T06:39:26;62.37;;;25.60;;
48945;SDS011;34999;50.940;3.998;2023-05-10T06:41:55;61.03;;;24.53;;
48945;SDS011;34999;50.940;3.998;2023-05-10T06:44:23;53.80;;;23.77;;
48945;SDS011;34999;50.940;3.998;2023-05-10T06:46:53;47.87;;;22.23;;
48945;SDS011;34999;50.940;3.998;2023-05-10T06:49:22;50.77;;;22.60;;
48945;SDS011;34999;50.940;3.998;2023-05-10T06:51:50;53.67;;;21.97;;
48945;SDS011;34999;50.940;3.998;2023-05-10T06:54:18;49.93;;;20.60;;
48945;SDS011;34999;50.940;3.998;2023-05-10T06:56:47;50.00;;;20.93;;
48945;SDS011;34999;50.940;3.998;2023-05-10T06:59:15;48.70;;;20.80;;
48945;SDS011;34999;50.940;3.998;2023-05-10T07:01:45;47.50;;;20.80;;
48945;SDS011;34999;50.940;3.998;2023-05-10T07:04:15;47.87;;;20.57;;
48945;SDS011;34999;50.940;3.998;2023-05-10T07:06:44;57.80;;;20.90;;
48945;SDS011;34999;50.940;3.998;2023-05-10T07:09:12;55.23;;;21.83;;
48945;SDS011;34999;50.940;3.998;2023-05-10T07:11:41;58.70;;;21.77;;
48945;SDS011;34999;50.940;3.998;2023-05-10T07:14:09;56.40;;;21.47;;
48945;SDS011;34999;50.940;3.998;2023-05-10T07:16:38;49.47;;;20.20;;
48945;SDS011;34999;50.940;3.998;2023-05-10T07:19:06;48.43;;;20.80;;
48945;SDS011;34999;50.940;3.998;2023-05-10T07:21:36;46.37;;;20.93;;
48945;SDS011;34999;50.940;3.998;2023-05-10T07:24:06;46.83;;;20.20;;
48945;SDS011;34999;50.940;3.998;2023-05-10T07:26:34;47.93;;;20.43;;
48945;SDS011;34999;50.940;3.998;2023-05-10T07:29:03;52.57;;;21.80;;
48945;SDS011;34999;50.940;3.998;2023-05-10T07:31:31;55.00;;;20.27;;
48945;SDS011;34999;50.940;3.998;2023-05-10T07:34:00;57.00;;;20.97;;
48945;SDS011;34999;50.940;3.998;2023-05-10T07:36:29;48.37;;;21.37;;
48945;SDS011;34999;50.940;3.998;2023-05-10T07:38:58;51.50;;;21.10;;
48945;SDS011;34999;50.940;3.998;2023-05-10T07:41:26;46.73;;;20.53;;
48945;SDS011;34999;50.940;3.998;2023-05-10T07:43:55;43.33;;;19.57;;
48945;SDS011;34999;50.940;3.998;2023-05-10T07:46:23;48.47;;;19.23;;
48945;SDS011;34999;50.940;3.998;2023-05-10T07:48:51;38.67;;;17.90;;
48945;SDS011;34999;50.940;3.998;2023-05-10T07:51:20;40.70;;;19.10;;
48945;SDS011;34999;50.940;3.998;2023-05-10T07:53:49;44.67;;;18.47;;
48945;SDS011;34999;50.940;3.998;2023-05-10T07:56:22;39.77;;;18.43;;
48945;SDS011;34999;50.940;3.998;2023-05-10T07:58:54;41.37;;;17.40;;
48945;SDS011;34999;50.940;3.998;2023-05-10T08:01:22;36.70;;;16.90;;
48945;SDS011;34999;50.940;3.998;2023-05-10T08:03:51;35.33;;;17.13;;
48945;SDS011;34999;50.940;3.998;2023-05-10T08:06:20;37.57;;;16.37;;
48945;SDS011;34999;50.940;3.998;2023-05-10T08:08:49;35.47;;;16.30;;
48945;SDS011;34999;50.940;3.998;2023-05-10T08:11:18;32.00;;;16.27;;
48945;SDS011;34999;50.940;3.998;2023-05-10T08:13:49;30.50;;;16.13;;
48945;SDS011;34999;50.940;3.998;2023-05-10T08:16:18;35.63;;;16.83;;
48945;SDS011;34999;50.940;3.998;2023-05-10T08:18:46;37.57;;;16.23;;
48945;SDS011;34999;50.940;3.998;2023-05-10T08:21:15;28.37;;;14.77;;
48945;SDS011;34999;50.940;3.998;2023-05-10T08:23:44;34.73;;;14.93;;
48945;SDS011;34999;50.940;3.998;2023-05-10T08:26:15;29.10;;;13.10;;
48945;SDS011;34999;50.940;3.998;2023-05-10T08:28:43;27.73;;;13.60;;
48945;SDS011;34999;50.940;3.998;2023-05-10T08:31:13;28.80;;;12.40;;
48945;SDS011;34999;50.940;3.998;2023-05-10T08:33:42;27.23;;;12.27;;
48945;SDS011;34999;50.940;3.998;2023-05-10T08:36:12;24.77;;;12.63;;
48945;SDS011;34999;50.940;3.998;2023-05-10T08:38:46;29.10;;;11.63;;
48945;SDS011;34999;50.940;3.998;2023-05-10T08:41:16;20.43;;;11.47;;
48945;SDS011;34999;50.940;3.998;2023-05-10T08:43:47;20.83;;;11.80;;
48945;SDS011;34999;50.940;3.998;2023-05-10T08:46:18;23.57;;;11.33;;
48945;SDS011;34999;50.940;3.998;2023-05-10T08:48:48;19.30;;;10.77;;
48945;SDS011;34999;50.940;3.998;2023-05-10T08:51:18;20.90;;;11.30;;
48945;SDS011;34999;50.940;3.998;2023-05-10T08:53:50;24.27;;;11.07;;
48945;SDS011;34999;50.940;3.998;2023-05-10T08:56:18;21.97;;;11.37;;
48945;SDS011;34999;50.940;3.998;2023-05-10T08:58:47;25.33;;;12.33;;
48945;SDS011;34999;50.940;3.998;2023-05-10T09:01:17;20.57;;;10.97;;
48945;SDS011;34999;50.940;3.998;2023-05-10T09:03:47;26.17;;;11.77;;
48945;SDS011;34999;50.940;3.998;2023-05-10T09:06:16;28.57;;;13.10;;
48945;SDS011;34999;50.940;3.998;2023-05-10T09:08:45;23.90;;;11.70;;
48945;SDS011;34999;50.940;3.998;2023-05-10T09:11:14;22.03;;;11.33;;
48945;SDS011;34999;50.940;3.998;2023-05-10T09:13:42;19.83;;;11.67;;
48945;SDS011;34999;50.940;3.998;2023-05-10T09:16:10;25.00;;;12.30;;
48945;SDS011;34999;50.940;3.998;2023-05-10T09:18:47;20.10;;;10.90;;
48945;SDS011;34999;50.940;3.998;2023-05-10T09:21:15;25.73;;;10.70;;
48945;SDS011;34999;50.940;3.998;2023-05-10T09:23:44;22.20;;;11.37;;
48945;SDS011;34999;50.940;3.998;2023-05-10T09:26:14;18.30;;;10.93;;
48945;SDS011;34999;50.940;3.998;2023-05-10T09:28:52;22.20;;;11.17;;
48945;SDS011;34999;50.940;3.998;2023-05-10T09:31:22;19.70;;;11.30;;
48945;SDS011;34999;50.940;3.998;2023-05-10T09:33:52;23.70;;;11.67;;
48945;SDS011;34999;50.940;3.998;2023-05-10T09:36:21;18.13;;;11.17;;
48945;SDS011;34999;50.940;3.998;2023-05-10T09:38:50;16.23;;;11.83;;
48945;SDS011;34999;50.940;3.998;2023-05-10T09:41:20;16.40;;;10.93;;
48945;SDS011;34999;50.940;3.998;2023-05-10T09:43:49;19.87;;;12.33;;
48945;SDS011;34999;50.940;3.998;2023-05-10T09:46:22;16.73;;;10.83;;
48945;SDS011;34999;50.940;3.998;2023-05-10T09:48:52;16.27;;;11.13;;
48945;SDS011;34999;50.940;3.998;2023-05-10T09:51:20;19.17;;;11.27;;
48945;SDS011;34999;50.940;3.998;2023-05-10T09:53:52;17.03;;;11.40;;
48945;SDS011;34999;50.940;3.998;2023-05-10T09:56:37;15.17;;;10.63;;
48945;SDS011;34999;50.940;3.998;2023-05-10T09:59:08;16.33;;;11.17;;
48945;SDS011;34999;50.940;3.998;2023-05-10T10:01:38;18.90;;;10.73;;
48945;SDS011;34999;50.940;3.998;2023-05-10T10:04:09;15.43;;;10.30;;
48945;SDS011;34999;50.940;3.998;2023-05-10T10:06:39;16.20;;;10.80;;
48945;SDS011;34999;50.940;3.998;2023-05-10T10:09:07;14.40;;;10.50;;
48945;SDS011;34999;50.940;3.998;2023-05-10T10:11:36;15.47;;;10.50;;
48945;SDS011;34999;50.940;3.998;2023-05-10T10:14:07;16.37;;;11.60;;
48945;SDS011;34999;50.940;3.998;2023-05-10T10:16:36;16.20;;;11.50;;
48945;SDS011;34999;50.940;3.998;2023-05-10T10:19:22;15.67;;;10.70;;
48945;SDS011;34999;50.940;3.998;2023-05-10T10:21:51;18.03;;;11.10;;
48945;SDS011;34999;50.940;3.998;2023-05-10T10:24:19;21.60;;;12.00;;
48945;SDS011;34999;50.940;3.998;2023-05-10T10:26:47;17.30;;;11.67;;
48945;SDS011;34999;50.940;3.998;2023-05-10T10:29:21;18.50;;;10.90;;
48945;SDS011;34999;50.940;3.998;2023-05-10T10:31:55;13.47;;;10.60;;
48945;SDS011;34999;50.940;3.998;2023-05-10T10:34:32;16.30;;;11.07;;
48945;SDS011;34999;50.940;3.998;2023-05-10T10:37:03;17.67;;;11.30;;
48945;SDS011;34999;50.940;3.998;2023-05-10T10:39:33;16.70;;;11.43;;
48945;SDS011;34999;50.940;3.998;2023-05-10T10:42:03;17.33;;;11.13;;
48945;SDS011;34999;50.940;3.998;2023-05-10T10:44:37;17.37;;;11.60;;
48945;SDS011;34999;50.940;3.998;2023-05-10T10:47:10;19.13;;;12.27;;
48945;SDS011;34999;50.940;3.998;2023-05-10T10:50:06;19.93;;;11.67;;
48945;SDS011;34999;50.940;3.998;2023-05-10T10:52:37;17.83;;;12.03;;
48945;SDS011;34999;50.940;3.998;2023-05-10T10:55:06;19.70;;;11.97;;
48945;SDS011;34999;50.940;3.998;2023-05-10T10:57:46;18.13;;;12.00;;
48945;SDS011;34999;50.940;3.998;2023-05-10T11:00:19;16.93;;;10.93;;
48945;SDS011;34999;50.940;3.998;2023-05-10T11:02:52;17.17;;;11.00;;
48945;SDS011;34999;50.940;3.998;2023-05-10T11:08:10;15.70;;;11.50;;
48945;SDS011;34999;50.940;3.998;2023-05-10T11:10:50;14.93;;;11.03;;
48945;SDS011;34999;50.940;3.998;2023-05-10T11:13:40;16.60;;;11.43;;
48945;SDS011;34999;50.940;3.998;2023-05-10T11:16:10;18.30;;;11.43;;
48945;SDS011;34999;50.940;3.998;2023-05-10T11:18:40;16.03;;;10.93;;
48945;SDS011;34999;50.940;3.998;2023-05-10T11:21:22;16.50;;;11.50;;
48945;SDS011;34999;50.940;3.998;2023-05-10T11:23:53;19.30;;;11.47;;
48945;SDS011;34999;50.940;3.998;2023-05-10T11:26:24;16.60;;;11.00;;
48945;SDS011;34999;50.940;3.998;2023-05-10T11:28:57;18.03;;;11.47;;
48945;SDS011;34999;50.940;3.998;2023-05-10T11:31:27;16.23;;;12.00;;
48945;SDS011;34999;50.940;3.998;2023-05-10T11:33:56;19.40;;;11.53;;
48945;SDS011;34999;50.940;3.998;2023-05-10T11:36:29;17.73;;;10.77;;
48945;SDS011;34999;50.940;3.998;2023-05-10T11:38:59;14.90;;;11.97;;
48945;SDS011;34999;50.940;3.998;2023-05-10T11:41:29;16.13;;;11.37;;
48945;SDS011;34999;50.940;3.998;2023-05-10T11:43:58;18.53;;;10.87;;
48945;SDS011;34999;50.940;3.998;2023-05-10T11:46:27;15.43;;;11.17;;
48945;SDS011;34999;50.940;3.998;2023-05-10T11:48:57;16.33;;;11.40;;
48945;SDS011;34999;50.940;3.998;2023-05-10T11:51:33;16.30;;;10.97;;
48945;SDS011;34999;50.940;3.998;2023-05-10T11:54:05;16.17;;;11.30;;
48945;SDS011;34999;50.940;3.998;2023-05-10T11:56:34;17.73;;;11.60;;
48945;SDS011;34999;50.940;3.998;2023-05-10T11:59:03;17.93;;;11.73;;
48945;SDS011;34999;50.940;3.998;2023-05-10T12:01:32;15.57;;;11.27;;
48945;SDS011;34999;50.940;3.998;2023-05-10T12:04:01;19.23;;;11.57;;
48945;SDS011;34999;50.940;3.998;2023-05-10T12:06:31;16.37;;;11.73;;
48945;SDS011;34999;50.940;3.998;2023-05-10T12:09:06;16.17;;;12.10;;
48945;SDS011;34999;50.940;3.998;2023-05-10T12:11:37;17.10;;;12.33;;
48945;SDS011;34999;50.940;3.998;2023-05-10T12:14:10;17.37;;;12.30;;
48945;SDS011;34999;50.940;3.998;2023-05-10T12:16:38;15.80;;;11.67;;
48945;SDS011;34999;50.940;3.998;2023-05-10T12:19:08;19.03;;;12.47;;
48945;SDS011;34999;50.940;3.998;2023-05-10T12:21:37;16.83;;;11.57;;
48945;SDS011;34999;50.940;3.998;2023-05-10T12:24:09;18.83;;;11.63;;
48945;SDS011;34999;50.940;3.998;2023-05-10T12:26:37;17.63;;;12.13;;
48945;SDS011;34999;50.940;3.998;2023-05-10T12:29:12;17.30;;;11.87;;
48945;SDS011;34999;50.940;3.998;2023-05-10T12:31:51;16.93;;;11.63;;
48945;SDS011;34999;50.940;3.998;2023-05-10T12:34:27;17.23;;;11.73;;
48945;SDS011;34999;50.940;3.998;2023-05-10T12:36:58;20.53;;;12.33;;
48945;SDS011;34999;50.940;3.998;2023-05-10T12:39:38;17.13;;;12.80;;
48945;SDS011;34999;50.940;3.998;2023-05-10T12:42:07;19.10;;;12.80;;
48945;SDS011;34999;50.940;3.998;2023-05-10T12:44:36;20.23;;;13.17;;
48945;SDS011;34999;50.940;3.998;2023-05-10T12:47:04;17.43;;;12.43;;
48945;SDS011;34999;50.940;3.998;2023-05-10T12:49:33;22.40;;;13.30;;
48945;SDS011;34999;50.940;3.998;2023-05-10T12:52:03;18.13;;;12.67;;
48945;SDS011;34999;50.940;3.998;2023-05-10T12:54:31;19.17;;;12.80;;
48945;SDS011;34999;50.940;3.998;2023-05-10T12:57:01;17.97;;;12.83;;
48945;SDS011;34999;50.940;3.998;2023-05-10T12:59:30;24.93;;;14.57;;
48945;SDS011;34999;50.940;3.998;2023-05-10T13:02:00;19.17;;;14.10;;
48945;SDS011;34999;50.940;3.998;2023-05-10T13:04:29;22.67;;;14.27;;
48945;SDS011;34999;50.940;3.998;2023-05-10T13:06:58;20.87;;;13.73;;
48945;SDS011;34999;50.940;3.998;2023-05-10T13:09:26;20.53;;;14.00;;
48945;SDS011;34999;50.940;3.998;2023-05-10T13:11:56;21.20;;;15.00;;
48945;SDS011;34999;50.940;3.998;2023-05-10T13:14:25;26.03;;;14.07;;
48945;SDS011;34999;50.940;3.998;2023-05-10T13:16:54;20.30;;;14.87;;
48945;SDS011;34999;50.940;3.998;2023-05-10T13:19:22;21.03;;;14.60;;
48945;SDS011;34999;50.940;3.998;2023-05-10T13:21:50;22.37;;;15.37;;
48945;SDS011;34999;50.940;3.998;2023-05-10T13:24:19;23.70;;;15.10;;
48945;SDS011;34999;50.940;3.998;2023-05-10T13:26:47;19.80;;;14.07;;
48945;SDS011;34999;50.940;3.998;2023-05-10T13:29:15;20.07;;;14.77;;
48945;SDS011;34999;50.940;3.998;2023-05-10T13:31:46;18.60;;;14.47;;
48945;SDS011;34999;50.940;3.998;2023-05-10T13:34:15;19.57;;;14.60;;
48945;SDS011;34999;50.940;3.998;2023-05-10T13:36:43;20.47;;;15.20;;
48945;SDS011;34999;50.940;3.998;2023-05-10T13:39:11;19.07;;;13.90;;
48945;SDS011;34999;50.940;3.998;2023-05-10T13:41:39;22.37;;;13.90;;
48945;SDS011;34999;50.940;3.998;2023-05-10T13:44:09;20.40;;;14.83;;
48945;SDS011;34999;50.940;3.998;2023-05-10T13:46:39;23.20;;;14.97;;
48945;SDS011;34999;50.940;3.998;2023-05-10T13:49:09;24.60;;;15.10;;
48945;SDS011;34999;50.940;3.998;2023-05-10T13:51:37;24.50;;;15.37;;
48945;SDS011;34999;50.940;3.998;2023-05-10T13:54:05;25.87;;;16.37;;
48945;SDS011;34999;50.940;3.998;2023-05-10T13:56:36;24.10;;;16.93;;
48945;SDS011;34999;50.940;3.998;2023-05-10T13:59:04;29.83;;;17.83;;
48945;SDS011;34999;50.940;3.998;2023-05-10T14:01:32;24.63;;;16.93;;
48945;SDS011;34999;50.940;3.998;2023-05-10T14:04:01;26.67;;;16.30;;
48945;SDS011;34999;50.940;3.998;2023-05-10T14:06:31;30.47;;;18.57;;
48945;SDS011;34999;50.940;3.998;2023-05-10T14:09:02;27.90;;;17.83;;
48945;SDS011;34999;50.940;3.998;2023-05-10T14:11:31;28.43;;;17.63;;
48945;SDS011;34999;50.940;3.998;2023-05-10T14:13:59;31.03;;;18.77;;
48945;SDS011;34999;50.940;3.998;2023-05-10T14:16:27;29.37;;;18.50;;
48945;SDS011;34999;50.940;3.998;2023-05-10T14:18:56;26.47;;;16.43;;
48945;SDS011;34999;50.940;3.998;2023-05-10T14:21:25;23.70;;;14.53;;
48945;SDS011;34999;50.940;3.998;2023-05-10T14:23:55;18.33;;;12.40;;
48945;SDS011;34999;50.940;3.998;2023-05-10T14:26:26;15.47;;;10.47;;
48945;SDS011;34999;50.940;3.998;2023-05-10T14:28:54;17.27;;;9.70;;
48945;SDS011;34999;50.940;3.998;2023-05-10T14:31:23;16.13;;;10.63;;
48945;SDS011;34999;50.940;3.998;2023-05-10T14:33:52;18.70;;;10.17;;
48945;SDS011;34999;50.940;3.998;2023-05-10T14:36:20;26.03;;;10.73;;
48945;SDS011;34999;50.940;3.998;2023-05-10T14:38:48;14.23;;;9.10;;
48945;SDS011;34999;50.940;3.998;2023-05-10T14:41:18;16.13;;;9.33;;
48945;SDS011;34999;50.940;3.998;2023-05-10T14:43:47;14.53;;;9.00;;
48945;SDS011;34999;50.940;3.998;2023-05-10T14:46:16;19.27;;;9.53;;
48945;SDS011;34999;50.940;3.998;2023-05-10T14:48:45;16.50;;;8.70;;
48945;SDS011;34999;50.940;3.998;2023-05-10T14:51:13;16.53;;;9.47;;
48945;SDS011;34999;50.940;3.998;2023-05-10T14:53:42;17.00;;;9.30;;
48945;SDS011;34999;50.940;3.998;2023-05-10T14:56:10;13.77;;;8.33;;
48945;SDS011;34999;50.940;3.998;2023-05-10T14:58:42;18.40;;;8.63;;
48945;SDS011;34999;50.940;3.998;2023-05-10T15:01:10;15.00;;;9.53;;
48945;SDS011;34999;50.940;3.998;2023-05-10T15:03:39;13.67;;;9.13;;
48945;SDS011;34999;50.940;3.998;2023-05-10T15:06:08;15.67;;;9.37;;
48945;SDS011;34999;50.940;3.998;2023-05-10T15:08:36;12.70;;;8.50;;
48945;SDS011;34999;50.940;3.998;2023-05-10T15:11:05;15.67;;;8.60;;
48945;SDS011;34999;50.940;3.998;2023-05-10T15:13:33;14.63;;;8.60;;
48945;SDS011;34999;50.940;3.998;2023-05-10T15:16:03;15.30;;;9.43;;
48945;SDS011;34999;50.940;3.998;2023-05-10T15:18:32;19.50;;;8.97;;
48945;SDS011;34999;50.940;3.998;2023-05-10T15:21:00;16.63;;;9.30;;
48945;SDS011;34999;50.940;3.998;2023-05-10T15:23:28;14.50;;;8.97;;
48945;SDS011;34999;50.940;3.998;2023-05-10T15:25:57;16.40;;;10.00;;
48945;SDS011;34999;50.940;3.998;2023-05-10T15:28:26;19.67;;;11.37;;
48945;SDS011;34999;50.940;3.998;2023-05-10T15:30:54;18.00;;;9.83;;
48945;SDS011;34999;50.940;3.998;2023-05-10T15:33:24;13.53;;;9.33;;